AirNav   Air Wisconsin Up To $57,000 Bonus
 
 1211 users online  

PA15 Couillard Seaplane Base
Martins Creek, Pennsylvania, USA

GOING TO MARTINS CREEK?


FAA INFORMATION EFFECTIVE 25 FEBRUARY 2021

Location

FAA Identifier: PA15
Lat/Long: 40-46-30.0000N 075-08-29.0000W
40-46.500000N 075-08.483333W
40.7750000,-75.1413889
(estimated)
Elevation: 210 ft. / 64 m (estimated)
Variation: 12W (1990)
From city: 2 miles E of MARTINS CREEK, PA
Time zone: UTC -5 (UTC -4 during Daylight Saving Time)
Zip code: 18013

Seaplane Base Operations

Seaplane Base use: Private use. Permission required prior to landing
Activation date: 09/1992
Control tower: no
ARTCC: NEW YORK CENTER
FSS: WILLIAMSPORT FLIGHT SERVICE STATION
Attendance: UNATNDD
Segmented circle: no

Seaplane Base Communications

WX AWOS-3 at N40 (15 nm SE): 121.725
WX ASOS at ABE (15 nm SW): 126.975 (610-264-1765)

Nearby radio navigation aids

VOR radial/distance  VOR name  Freq  Var
FJCr088/14.5ALLENTOWN VORTAC117.5010W
BWZr275/14.6BROADWAY VOR/DME114.2011W
STWr234/18.1STILLWATER VOR/DME109.6011W
SBJr312/21.5SOLBERG VOR/DME112.9010W
ETXr074/27.3EAST TEXAS VOR/DME110.2009W
SAXr248/32.5SPARTA VORTAC115.7011W
ARDr351/33.1YARDLEY VOR/DME108.2010W
PTWr039/38.3POTTSTOWN VORTAC116.5009W
LVZr150/38.8WILKES-BARRE VORTAC111.6010W

 
NDB name  Hdg/Dist  Freq  Var  ID
CHATHAM287/32.425413WCAT -.-. .- -
AMBLER022/39.527512WING .. -. --.

Seaplane Base Services

Runway Information

Runway 10W/28W

Dimensions: 3000 x 200 ft. / 914 x 61 m
Surface: water
RUNWAY 10W  RUNWAY 28W
Traffic pattern: leftleft

Seaplane Base Ownership and Management from official FAA records

Ownership: Privately-owned
Owner: BRUCE R. COUILLARD
4595 FIRST TERRACE
BANGOR, PA 18013
Phone 610-252-4067
Manager: BRUCE R. COUILLARD
4595 FIRST TERRACE
BANGOR, PA 18013
Phone 610-252-4067

Seaplane Base Operational Statistics

Aircraft based on the field: 1
Single engine airplanes: 1
    

Additional Remarks

FOR CD CTC ALLENTOWN APCH AT 800-728-6322.

Instrument Procedures

There are no published instrument procedures at PA15.

Some nearby airports with instrument procedures:

N43 - Braden Airpark (5 nm SW)
N85 - Alexandria Airport (13 nm SE)
1N7 - Blairstown Airport (13 nm NE)
N40 - Sky Manor Airport (15 nm SE)
KABE - Lehigh Valley International Airport (15 nm SW)
N53 - Stroudsburg-Pocono Airport (16 nm N)
 
Loc | Ops | Rwys | IFR | FBO | Links
Com | Nav | Svcs | Stats | Notes
Area around PA15 (Couillard Seaplane Base)
 
Road maps at: MapQuest Bing Google
 
Aerial photo
No photo
 
Sectional chart

 
Airport distance calculator
Flying to Couillard Seaplane Base? Find the distance to fly.

From to PA15

Sunrise and sunset
Times for 01-Mar-2021
 Local
(UTC-5)
 Zulu
(UTC)
Morning civil twilight06:0811:08
Sunrise06:3611:36
Sunset17:5022:50
Evening civil twilight18:1823:18

Current date and time
Zulu (UTC)  01-Mar-2021 14:50:10
Local (UTC-5)  01-Mar-2021 09:50:10
 
METAR
KABE 
16nm SW 
011351Z 27006KT 1/2SM -RA FG OVC002 03/02 A2967 RMK AO2 UPB41E43RAB43 SLP052 P0000 T00280017
KXLL 
20nm SW 
011415Z AUTO 25003KT 7SM OVC004 03/03 A2970 RMK AO2
KUKT 
23nm SW 
011415Z AUTO 00000KT 5SM BR OVC003 04/04 A2966 RMK A01
K12N 
24nm NE 
011354Z AUTO 00000KT 03/03 A2964 RMK AO1 SLP043 T00280028
KSMQ 
24nm SE 
ASOS 120.60 908-722-2139
011415Z AUTO 00000KT OVC004 05/04 A2963 RMK AO2 T00500044 $
KCKZ 
24nm S 
011415Z AUTO 00000KT 4SM UP OVC003 04/04 A2966 RMK AO2
KMPO 
24nm NW 
011404Z AUTO 28015G21KT 10SM SCT006 BKN011 OVC024 03/03 A2961 RMK AO2 RAE03 P0000 T00330028
KDYL 
27nm S 
011354Z AUTO 25004KT 5SM BR OVC002 04/03 A2965 RMK AO2 SLP044 T00440033
K22N 
28nm W 
011415Z AUTO 26003KT 4SM BR OVC012 03/03 A2969 RMK AO2
TAF
KABE 
16nm SW 
011317Z 0113/0212 26005KT 2SM -SHRA BR SCT002 OVC010 TEMPO 0113/0114 1SM -SHRA BR BKN002 FM011400 27009KT 4SM BR VCSH OVC015 FM011600 29017G27KT P6SM SCT045 FM020000 30022G38KT P6SM SCT045
NOTAMs
Click for the latest NOTAMs
NOTAMs are issued by the DoD/FAA and will open in a separate window not controlled by AirNav.

 

 
 

Would you like to see your business listed on this page?

 If your business provides an interesting product or service to pilots, flight crews, aircraft, or users of the Couillard Seaplane Base, you should consider listing it here.  To start the listing process, click on the button below
 
Add a business
 

Other Pages about Couillard Seaplane Base

Update a link
 
Copyright © AirNav, LLC. All rights reserved. Privacy Policy  Contact